MYGF

Grand Bahama International Airport

Freeport, , Bahamas
MYGF 170510Z 1706/1806 03010KT 9999 FEW020
Issued Valid From Valid To
Nov-17 @ 05:10 UTC
(4 hours ago)
Nov-17 @ 06:00 UTC
(3 hours ago)
Nov-18 @ 06:00 UTC
(in 21 hours)
Nov-17 @ 06:00 to Nov-18 @ 06:00
MYGF 170510Z 1706/1806 03010KT 9999 FEW020
Wind Visibility Clouds
30° at 10 knots 10,000+ meters
  • Few at 2,000' AGL
MYGF 170510Z 1706/1806 03010KT 9999 FEW020
Issued Nov-17 @ 05:10 UTC
(4 hours ago)
Valid From Nov-17 @ 06:00 UTC
(3 hours ago)
Valid To Nov-18 @ 06:00 UTC
(in 21 hours)
Nov-17 @ 06:00 - Nov-18 @ 06:00
Wind Visibility
30° at 10 knots 10,000+ meters
Clouds
  • Few at 2,000' AGL